Portada
METAR-TAF:

METAR-TAF

Aeroports :

Shenzhen, Xina

latitud: 22-33N, longitud: 114-06E, altitud: 18 m

Observació

L'informe es va fer fa 20 minuts, a les 23:00 UTC
Vent 6 kt del Est/Sud-Est
Temperatura 21°C
Humitat 88%
Pressió 1019 hPa
Visibilitat 10 km o més
Núvols disperses a una alçada de 1600 ft
Cel ennuvolat a una alçada de 4600 ft

METAR: ZGSZ 262300Z 11003MPS 9999 SCT016 BKN046 21/19 Q1019 NOSIG

Hora: 07:20 (23:20 UTC)

Pronòstic

L'informe es va fer fa 8 hores i 10 minuts, a les 15:10 UTC
Pronòstic vàlid del 26 a les 18 UTC al 27 a les 18 UTC
Vent 8 kt del Est/Sud-Est
Visibilitat: 5000 m
Núvols disperses a una alçada de 4000 ft
boirina
Temporalment
l' 26 a les 18 UTC al 26 a les 23 UTC
Visibilitat: 2000 m

TAF: ZGSZ 261510Z 2618/2718 12004MPS 5000 BR SCT040 TX25/2706Z TN19/2622Z TEMPO 2618/2623 2000

Observacions i pronòstics meteorològics de més de 4000 aeroports (METAR i TAF).

Les estacions disponibles són els punts grocs i vermells al mapa.

Posi el ratolí al punt desitjat per veure el nom de l'estació.

Feu clic per veure les observacions i els pronòstics meteorològics.

Per canviar el mapa: feu clic els botons verds amb una creu de color negre per apropar; al botó verd amb un guió per allunyar la imatge; o en les fletxes verdes per a mapes adjacents.


METAR-TAF: